Time;durP1;ratioP1;P1;durP2;ratioP2;P2;SDS_P1;SDS_P2;PMS_P1;PMS_P2;Temp;Humidity;BMP_temperature;BMP_pressure;BME280_temperature;BME280_humidity;BME280_pressure;Samples;Min_cycle;Max_cycle;Signal;HPM_P1;HPM_P2
2023/03/06 00:01:07;;;;;;;18.52;11.90;;;;;;;2.66;100.00;100191.97;4963886;28;19980;-80
2023/03/06 00:03:34;;;;;;;17.63;11.52;;;;;;;2.61;100.00;100194.09;4959378;28;20114;-82
2023/03/06 00:06:01;;;;;;;21.20;12.25;;;;;;;2.58;100.00;100174.47;4970092;28;20486;-80
2023/03/06 00:08:29;;;;;;;23.38;13.02;;;;;;;2.56;100.00;100185.84;4970688;28;20426;-82
2023/03/06 00:10:56;;;;;;;22.27;13.32;;;;;;;2.58;100.00;100174.47;4972882;28;20074;-81
2023/03/06 00:13:23;;;;;;;22.73;12.82;;;;;;;2.49;100.00;100180.31;4972035;28;20061;-80
2023/03/06 00:15:51;;;;;;;23.75;13.23;;;;;;;2.56;100.00;100170.34;4956071;28;20047;-79
2023/03/06 00:18:18;;;;;;;19.88;13.10;;;;;;;2.57;100.00;100172.81;4963277;28;20050;-82
2023/03/06 00:20:45;;;;;;;21.23;13.48;;;;;;;2.53;100.00;100171.41;4970813;28;20051;-80
2023/03/06 00:23:12;;;;;;;20.50;13.32;;;;;;;2.59;100.00;100167.53;4970901;28;20083;-80
2023/03/06 00:25:42;;;;;;;20.52;13.50;;;;;;;2.64;100.00;100168.03;4963088;28;20115;-80
2023/03/06 00:28:11;;;;;;;25.05;14.23;;;;;;;2.60;100.00;100162.25;4962262;28;20083;-81
2023/03/06 00:30:38;;;;;;;22.35;14.30;;;;;;;2.58;100.00;100156.38;4963942;28;20039;-80
2023/03/06 00:33:06;;;;;;;24.20;15.43;;;;;;;2.63;100.00;100158.63;4967965;28;20078;-80
2023/03/06 00:35:32;;;;;;;25.48;15.00;;;;;;;2.63;100.00;100153.47;4969445;28;20126;-80
2023/03/06 00:37:59;;;;;;;21.75;15.05;;;;;;;2.52;100.00;100145.69;4962643;28;20086;-80
2023/03/06 00:40:26;;;;;;;23.77;14.80;;;;;;;2.57;100.00;100146.19;4963056;28;20047;-80
2023/03/06 00:42:53;;;;;;;24.80;15.25;;;;;;;2.63;100.00;100141.38;4973193;28;20046;-79
2023/03/06 00:45:19;;;;;;;22.95;15.02;;;;;;;2.66;100.00;100146.31;4965231;28;20079;-79
2023/03/06 00:47:46;;;;;;;25.45;16.42;;;;;;;2.70;100.00;100136.56;4965048;28;20082;-81
2023/03/06 00:50:14;;;;;;;25.15;16.10;;;;;;;2.69;100.00;100134.09;4967760;28;20055;-80
2023/03/06 00:52:41;;;;;;;25.02;15.75;;;;;;;2.66;100.00;100135.97;4971451;28;20078;-82
2023/03/06 00:55:09;;;;;;;28.88;16.85;;;;;;;2.60;100.00;100131.25;4962962;28;20122;-82
2023/03/06 00:57:36;;;;;;;28.92;18.10;;;;;;;2.55;100.00;100128.22;4971525;28;20117;-81
2023/03/06 01:00:03;;;;;;;30.70;17.55;;;;;;;2.60;100.00;100125.28;4969211;28;20501;-82
2023/03/06 01:02:30;;;;;;;29.30;18.23;;;;;;;2.55;100.00;100117.06;4971512;28;20074;-81
2023/03/06 01:04:56;;;;;;;31.00;18.13;;;;;;;2.56;100.00;100126.44;4965017;28;20082;-80
2023/03/06 01:07:26;;;;;;;30.02;18.00;;;;;;;2.51;100.00;100118.22;4966966;28;20057;-81
2023/03/06 01:09:52;;;;;;;27.88;17.38;;;;;;;2.56;100.00;100118.69;4973526;28;20055;-78
2023/03/06 01:12:19;;;;;;;32.88;17.52;;;;;;;2.55;100.00;100114.47;4973510;28;20082;-82
2023/03/06 01:14:46;;;;;;;27.80;17.90;;;;;;;2.51;100.00;100110.47;4972028;28;20117;-81
2023/03/06 01:17:12;;;;;;;27.98;17.95;;;;;;;2.55;100.00;100117.06;4963505;28;20047;-79
2023/03/06 01:19:41;;;;;;;28.35;17.52;;;;;;;2.51;100.00;100100.16;4967504;28;20058;-81
2023/03/06 01:22:08;;;;;;;31.52;19.13;;;;;;;2.55;100.00;100106.72;4973642;28;20054;-81
2023/03/06 01:24:36;;;;;;;30.70;18.67;;;;;;;2.53;100.00;100098.28;4991572;23;20086;-79
2023/03/06 01:27:03;;;;;;;26.65;17.70;;;;;;;2.54;100.00;100090.41;4956968;28;20580;-80
2023/03/06 01:29:30;;;;;;;28.23;17.35;;;;;;;2.62;100.00;100102.75;4962734;28;20449;-79
2023/03/06 01:31:57;;;;;;;30.40;18.67;;;;;;;2.55;100.00;100086.88;4961135;28;20102;-78
2023/03/06 01:34:25;;;;;;;28.60;18.15;;;;;;;2.58;100.00;100088.41;4957240;28;20082;-78
2023/03/06 01:36:55;;;;;;;31.58;18.48;;;;;;;2.60;100.00;100084.78;4956627;29;20082;-79
2023/03/06 01:39:22;;;;;;;29.02;18.20;;;;;;;2.57;100.00;100090.16;4961616;28;20127;-79
2023/03/06 01:41:50;;;;;;;29.27;18.80;;;;;;;2.59;100.00;100083.13;4961080;28;20042;-79
2023/03/06 01:44:16;;;;;;;35.53;20.65;;;;;;;2.58;100.00;100083.25;4964014;28;20133;-79
2023/03/06 01:46:44;;;;;;;30.85;20.25;;;;;;;2.55;100.00;100086.06;4962603;28;20506;-79
2023/03/06 01:49:21;;;;;;;35.08;19.98;;;;;;;2.45;100.00;100070.44;4957345;28;20165;-79
2023/03/06 01:51:52;;;;;;;40.08;23.00;;;;;;;2.41;100.00;100076.78;4957413;28;20532;-80
2023/03/06 01:54:23;;;;;;;36.17;22.25;;;;;;;2.29;100.00;100075.16;4957457;28;20087;-79
2023/03/06 01:56:56;;;;;;;40.47;22.45;;;;;;;2.20;100.00;100066.34;4958059;28;20126;-78
2023/03/06 01:59:25;;;;;;;36.75;21.42;;;;;;;2.21;100.00;100067.16;4956245;29;20086;-80
2023/03/06 02:01:56;;;;;;;33.55;21.25;;;;;;;2.22;100.00;100067.06;4955854;28;20479;-78
2023/03/06 02:04:23;;;;;;;38.55;22.23;;;;;;;2.15;100.00;100062.47;4955041;29;20058;-80
2023/03/06 02:06:50;;;;;;;39.15;23.55;;;;;;;2.10;100.00;100065.41;4953297;28;20066;-79
2023/03/06 02:09:17;;;;;;;40.45;23.30;;;;;;;2.07;100.00;100065.63;4957377;28;20137;-79
2023/03/06 02:11:45;;;;;;;41.10;23.25;;;;;;;1.94;100.00;100050.25;4954745;28;20122;-79
2023/03/06 02:14:16;;;;;;;39.17;23.63;;;;;;;1.92;100.00;100056.44;4955955;28;20048;-79
2023/03/06 02:16:43;;;;;;;40.67;24.27;;;;;;;1.93;100.00;100056.34;4961864;28;20110;-80
2023/03/06 02:19:24;;;;;;;40.53;24.90;;;;;;;1.95;100.00;100048.47;4957565;28;20146;-79
2023/03/06 02:21:51;;;;;;;43.05;25.02;;;;;;;1.94;100.00;100041.66;4950944;28;20163;-79
2023/03/06 02:24:27;;;;;;;40.03;25.45;;;;;;;2.01;100.00;100040.28;4956182;28;20126;-79
2023/03/06 02:26:57;;;;;;;39.60;23.73;;;;;;;2.08;100.00;100045.81;4956249;28;20402;-79
2023/03/06 02:29:27;;;;;;;40.70;25.48;;;;;;;2.07;100.00;100042.41;4963176;28;20086;-80
2023/03/06 02:31:53;;;;;;;40.30;23.55;;;;;;;2.05;100.00;100040.88;4958438;28;20450;-79
2023/03/06 02:34:48;;;;;;;39.67;24.45;;;;;;;2.10;100.00;100029.25;4962940;28;20371;-77
2023/03/06 02:37:15;;;;;;;45.92;24.25;;;;;;;2.06;100.00;100035.59;4951062;28;20465;-78
2023/03/06 02:39:46;;;;;;;42.67;24.95;;;;;;;2.13;100.00;100034.19;4955731;28;20203;-79
2023/03/06 02:42:18;;;;;;;46.80;25.05;;;;;;;2.07;100.00;100026.91;4955743;28;20063;-80
2023/03/06 02:44:45;;;;;;;45.17;26.30;;;;;;;2.12;100.00;100029.97;4959605;28;20159;-82
2023/03/06 02:47:12;;;;;;;55.88;29.58;;;;;;;2.12;100.00;100024.00;4966816;28;20502;-79
2023/03/06 02:49:38;;;;;;;73.05;36.00;;;;;;;2.14;100.00;100025.50;4964368;28;20060;-79
2023/03/06 02:52:06;;;;;;;78.00;39.17;;;;;;;2.14;100.00;100019.53;4956735;28;20145;-78
2023/03/06 02:54:33;;;;;;;68.25;34.60;;;;;;;2.13;100.00;100018.72;4956934;28;20147;-77
2023/03/06 02:57:00;;;;;;;57.03;30.13;;;;;;;2.14;100.00;100019.53;4966368;28;20416;-79
2023/03/06 02:59:28;;;;;;;50.03;27.95;;;;;;;2.19;100.00;100014.84;4958879;28;20081;-78
2023/03/06 03:01:55;;;;;;;53.67;27.63;;;;;;;2.23;100.00;100004.16;4963123;28;20398;-77
2023/03/06 03:04:22;;;;;;;46.50;27.33;;;;;;;2.21;100.00;100015.56;4966222;28;20138;-78
2023/03/06 03:06:49;;;;;;;48.00;26.63;;;;;;;2.23;100.00;100009.34;4955290;28;20062;-79
2023/03/06 03:09:16;;;;;;;48.58;27.02;;;;;;;2.32;100.00;100015.56;4954165;28;20484;-79
2023/03/06 03:11:43;;;;;;;47.47;28.50;;;;;;;2.33;100.00;100010.28;4956330;28;20181;-78
2023/03/06 03:14:09;;;;;;;46.65;26.67;;;;;;;2.28;100.00;99996.91;4961415;28;20043;-79
2023/03/06 03:16:37;;;;;;;48.45;27.27;;;;;;;2.27;100.00;99994.44;4955317;28;20502;-78
2023/03/06 03:19:04;;;;;;;46.53;26.77;;;;;;;2.35;100.00;100004.16;4970165;28;20078;-81
2023/03/06 03:24:32;;;;;;;49.38;27.10;;;;;;;2.33;100.00;100002.53;4967044;28;20529;-79
2023/03/06 03:27:00;;;;;;;49.47;26.83;;;;;;;2.32;100.00;100003.47;4956839;28;20047;-79
2023/03/06 03:29:28;;;;;;;53.80;28.10;;;;;;;2.35;100.00;100001.59;4954887;28;20058;-79
2023/03/06 03:31:56;;;;;;;52.08;26.45;;;;;;;2.43;100.00;100004.38;4963513;28;20267;-78
2023/03/06 03:34:23;;;;;;;47.35;26.58;;;;;;;2.42;100.00;100003.53;4954879;28;20058;-79
2023/03/06 03:36:49;;;;;;;45.03;26.52;;;;;;;2.42;100.00;100002.72;4955692;28;20086;-80
2023/03/06 03:39:16;;;;;;;43.30;25.42;;;;;;;2.42;100.00;100000.97;4964276;28;20133;-78
2023/03/06 03:41:42;;;;;;;44.75;25.60;;;;;;;2.45;100.00;99998.16;4959228;28;20154;-78
2023/03/06 03:44:10;;;;;;;46.75;25.58;;;;;;;2.35;100.00;99992.09;4959646;28;20059;-78
2023/03/06 03:46:37;;;;;;;48.15;27.05;;;;;;;2.44;100.00;100000.84;4965684;28;20069;-77
2023/03/06 03:49:05;;;;;;;48.22;26.05;;;;;;;2.42;100.00;99992.41;4958289;28;20431;-79
2023/03/06 03:51:35;;;;;;;46.70;25.58;;;;;;;2.46;100.00;99993.81;4975726;28;20130;-78
2023/03/06 03:54:05;;;;;;;47.78;25.52;;;;;;;2.46;100.00;99991.22;4968392;28;20043;-78
2023/03/06 03:57:55;;;;;;;47.05;26.92;;;;;;;2.43;100.00;99983.72;4960127;28;20055;-79
2023/03/06 04:03:28;;;;;;;45.88;26.02;;;;;;;2.36;100.00;99969.66;4957933;28;20059;-80
2023/03/06 04:06:01;;;;;;;46.08;26.73;;;;;;;2.22;100.00;99950.06;4959204;28;20470;-80
2023/03/06 04:08:28;;;;;;;46.17;26.02;;;;;;;2.40;100.00;99963.28;4966557;28;20078;-80
2023/03/06 04:10:55;;;;;;;49.58;26.77;;;;;;;2.43;100.00;99965.63;4965769;28;20106;-79
2023/03/06 04:13:22;;;;;;;49.25;27.55;;;;;;;2.36;100.00;99962.75;4966582;28;20054;-80
2023/03/06 04:15:51;;;;;;;50.45;27.85;;;;;;;2.40;100.00;99964.09;4963987;28;20122;-80
2023/03/06 04:18:18;;;;;;;46.47;27.08;;;;;;;2.35;100.00;99958.50;4967428;28;20084;-80
2023/03/06 04:20:47;;;;;;;48.38;27.65;;;;;;;2.36;100.00;99952.41;4967755;28;20137;-80
2023/03/06 04:23:15;;;;;;;56.38;28.67;;;;;;;2.33;100.00;99939.75;4965841;28;20051;-79
2023/03/06 04:25:42;;;;;;;57.88;29.52;;;;;;;2.32;100.00;99940.69;4958806;28;20159;-79
2023/03/06 04:28:09;;;;;;;58.30;30.02;;;;;;;2.30;100.00;99937.41;4958656;28;20126;-79
2023/03/06 04:30:36;;;;;;;58.63;28.58;;;;;;;2.35;100.00;99934.47;4957796;28;20137;-80
2023/03/06 04:33:03;;;;;;;56.63;29.42;;;;;;;2.32;100.00;99926.00;4957988;28;20075;-80
2023/03/06 04:35:29;;;;;;;53.78;28.60;;;;;;;2.33;100.00;99926.84;4960942;28;20119;-78
2023/03/06 04:37:56;;;;;;;52.30;28.17;;;;;;;2.35;100.00;99924.13;4969937;28;20122;-79
2023/03/06 04:40:28;;;;;;;59.15;30.20;;;;;;;2.35;100.00;99918.97;4958909;28;20106;-80
2023/03/06 04:42:55;;;;;;;57.78;30.50;;;;;;;2.28;100.00;99914.28;4954119;28;20062;-78
2023/03/06 04:45:21;;;;;;;49.33;28.52;;;;;;;2.30;100.00;99914.16;4958174;28;20058;-78
2023/03/06 04:47:48;;;;;;;56.75;29.73;;;;;;;2.35;100.00;99906.06;4969404;28;20151;-80
2023/03/06 04:50:16;;;;;;;58.00;30.90;;;;;;;2.34;100.00;99907.81;4963185;28;20109;-80
2023/03/06 04:52:43;;;;;;;55.75;30.05;;;;;;;2.33;100.00;99907.00;4967622;28;20058;-79
2023/03/06 04:55:13;;;;;;;58.55;30.58;;;;;;;2.27;100.00;99907.47;4964754;28;20152;-79
2023/03/06 04:57:43;;;;;;;50.38;28.35;;;;;;;2.29;100.00;99899.63;4960709;28;20489;-78
2023/03/06 05:00:14;;;;;;;54.10;29.67;;;;;;;2.27;100.00;99910.06;4962963;28;20051;-78
2023/03/06 05:02:44;;;;;;;55.65;30.00;;;;;;;2.30;100.00;99906.41;4959469;28;20047;-79
2023/03/06 05:05:12;;;;;;;60.97;30.58;;;;;;;2.29;100.00;99904.78;4965066;28;20118;-79
2023/03/06 05:07:39;;;;;;;57.45;30.83;;;;;;;2.31;100.00;99908.88;4962429;28;20502;-79
2023/03/06 05:10:07;;;;;;;54.85;30.83;;;;;;;2.32;100.00;99914.88;4965395;28;20079;-79
2023/03/06 05:12:35;;;;;;;59.75;30.75;;;;;;;2.35;100.00;99912.03;4958301;28;20078;-78
2023/03/06 05:15:06;;;;;;;58.78;31.20;;;;;;;2.33;100.00;99896.69;4963203;28;20054;-79
2023/03/06 05:17:32;;;;;;;58.08;31.02;;;;;;;2.32;100.00;99900.19;4964384;28;20074;-79
2023/03/06 05:19:59;;;;;;;54.45;30.30;;;;;;;2.34;100.00;99905.25;4961147;28;20055;-77
2023/03/06 05:22:29;;;;;;;56.50;30.75;;;;;;;2.37;100.00;99917.06;4971566;28;20058;-81
2023/03/06 05:24:56;;;;;;;55.20;29.38;;;;;;;2.39;100.00;99910.00;4963101;28;20118;-79
2023/03/06 05:27:27;;;;;;;59.67;29.77;;;;;;;2.37;100.00;99915.28;4958852;28;20103;-82
2023/03/06 05:29:55;;;;;;;53.45;30.75;;;;;;;2.37;100.00;99911.88;4955261;28;20075;-80
2023/03/06 05:32:24;;;;;;;57.13;29.95;;;;;;;2.32;100.00;99914.88;4966850;28;20075;-81
2023/03/06 05:34:52;;;;;;;56.47;29.52;;;;;;;2.26;100.00;99917.94;4970217;28;20114;-80
2023/03/06 05:37:19;;;;;;;57.05;29.58;;;;;;;2.29;100.00;99909.94;4965085;28;20071;-78
2023/03/06 05:39:47;;;;;;;57.53;30.00;;;;;;;2.31;100.00;99919.22;4960460;28;20051;-79
2023/03/06 05:42:14;;;;;;;62.47;31.08;;;;;;;2.25;100.00;99919.69;4953606;28;20071;-78
2023/03/06 05:44:41;;;;;;;55.03;29.90;;;;;;;2.30;100.00;99922.72;4967514;28;20055;-80
2023/03/06 05:47:14;;;;;;;54.45;29.77;;;;;;;2.31;100.00;99924.38;4966223;28;20086;-78
2023/03/06 05:49:42;;;;;;;53.05;29.33;;;;;;;2.25;100.00;99916.28;4963923;28;20058;-78
2023/03/06 05:52:13;;;;;;;50.38;27.50;;;;;;;2.31;100.00;99919.22;4967917;28;20133;-81
2023/03/06 05:54:40;;;;;;;47.72;26.58;;;;;;;2.27;100.00;99917.81;4968481;28;20091;-80
2023/03/06 05:57:07;;;;;;;52.60;29.25;;;;;;;2.31;100.00;99920.97;4960362;28;20051;-79
2023/03/06 05:59:34;;;;;;;56.20;30.02;;;;;;;2.27;100.00;99917.81;4967727;28;20403;-80
2023/03/06 06:02:02;;;;;;;52.88;28.73;;;;;;;2.31;100.00;99920.97;4968064;28;20111;-79
2023/03/06 06:04:29;;;;;;;55.90;28.33;;;;;;;2.25;100.00;99927.44;4967160;28;20326;-79
2023/03/06 06:06:59;;;;;;;48.10;27.00;;;;;;;2.30;100.00;99916.75;4956949;28;20139;-79
2023/03/06 06:09:27;;;;;;;51.80;27.23;;;;;;;2.26;100.00;99918.75;4968323;28;20054;-80
2023/03/06 06:11:57;;;;;;;51.92;27.58;;;;;;;2.30;100.00;99914.16;4963308;28;20101;-79
2023/03/06 06:14:24;;;;;;;54.92;27.95;;;;;;;2.31;100.00;99913.22;4969108;28;20090;-79
2023/03/06 06:16:51;;;;;;;47.20;26.10;;;;;;;2.31;100.00;99914.03;4958756;28;20093;-78
2023/03/06 06:19:19;;;;;;;53.88;27.08;;;;;;;2.27;100.00;99912.66;4967086;28;20051;-78
2023/03/06 06:21:46;;;;;;;46.50;25.92;;;;;;;2.29;100.00;99904.78;4957918;28;20393;-79
2023/03/06 06:24:16;;;;;;;48.28;24.95;;;;;;;2.29;100.00;99915.09;4964313;28;20047;-77
2023/03/06 06:26:43;;;;;;;48.85;24.80;;;;;;;2.32;100.00;99918.28;4959114;28;20085;-78
2023/03/06 06:29:10;;;;;;;45.95;25.85;;;;;;;2.28;100.00;99914.28;4977867;28;20126;-78
2023/03/06 06:31:37;;;;;;;45.58;24.83;;;;;;;2.25;100.00;99913.69;4976519;28;20046;-78
2023/03/06 06:34:05;;;;;;;47.80;24.30;;;;;;;2.25;100.00;99909.34;4975194;28;20047;-79
2023/03/06 06:36:32;;;;;;;43.03;23.05;;;;;;;2.32;100.00;99907.13;4958294;28;20103;-78
2023/03/06 06:38:59;;;;;;;51.80;25.20;;;;;;;2.38;100.00;99904.03;4956900;28;20131;-80
2023/03/06 06:41:27;;;;;;;50.08;25.67;;;;;;;2.32;100.00;99910.53;4961378;28;20079;-80
2023/03/06 06:43:54;;;;;;;43.65;23.67;;;;;;;2.29;100.00;99913.34;4956456;28;20051;-80
2023/03/06 06:46:21;;;;;;;49.00;24.42;;;;;;;2.35;100.00;99912.03;4958487;28;20078;-78
2023/03/06 06:48:49;;;;;;;45.10;23.77;;;;;;;2.40;100.00;99909.88;4957401;28;20142;-81
2023/03/06 06:51:16;;;;;;;47.78;25.25;;;;;;;2.45;100.00;99914.69;4963646;28;20051;-80
2023/03/06 06:53:43;;;;;;;42.88;24.50;;;;;;;2.41;100.00;99921.84;4963576;28;20047;-78
2023/03/06 06:56:10;;;;;;;45.42;24.70;;;;;;;2.33;100.00;99909.59;4963093;28;20050;-79
2023/03/06 06:58:38;;;;;;;42.65;24.40;;;;;;;2.41;100.00;99908.94;4957648;28;20055;-80
2023/03/06 07:01:07;;;;;;;49.67;25.50;;;;;;;2.29;100.00;99904.78;4970518;28;20050;-79
2023/03/06 07:03:34;;;;;;;48.55;26.88;;;;;;;2.32;100.00;99915.69;4959711;28;20413;-79
2023/03/06 07:06:00;;;;;;;47.25;26.23;;;;;;;2.43;100.00;99921.75;4957676;28;20070;-80
2023/03/06 07:08:30;;;;;;;49.15;26.25;;;;;;;2.29;100.00;99915.09;4965449;28;20082;-79
2023/03/06 07:10:57;;;;;;;51.10;27.90;;;;;;;2.43;100.00;99929.47;4965374;28;20126;-80
2023/03/06 07:13:24;;;;;;;48.65;27.58;;;;;;;2.41;100.00;99926.19;4959555;28;20055;-78
2023/03/06 07:15:52;;;;;;;54.75;27.80;;;;;;;2.47;100.00;99928.31;4960564;28;20460;-79
2023/03/06 07:18:18;;;;;;;53.03;26.58;;;;;;;2.49;100.00;99919.50;4962164;28;20086;-79
2023/03/06 07:20:48;;;;;;;50.95;26.48;;;;;;;2.46;100.00;99921.50;4969361;28;20130;-79
2023/03/06 07:23:14;;;;;;;54.28;27.67;;;;;;;2.49;100.00;99916.09;4961405;28;20578;-79
2023/03/06 07:25:41;;;;;;;49.67;26.75;;;;;;;2.43;100.00;99909.66;5016018;23;20487;-81
2023/03/06 07:28:08;;;;;;;51.33;26.92;;;;;;;2.66;100.00;99933.66;5011576;28;20124;-80
2023/03/06 07:30:34;;;;;;;56.42;27.30;;;;;;;2.59;100.00;99919.59;5018780;28;20080;-80
2023/03/06 07:33:02;;;;;;;50.97;26.02;;;;;;;2.66;100.00;99921.56;5011794;28;20125;-80
2023/03/06 07:35:29;;;;;;;51.10;27.10;;;;;;;2.59;100.00;99924.75;5001682;28;20055;-80
2023/03/06 07:37:56;;;;;;;52.45;28.13;;;;;;;2.62;100.00;99921.94;4995229;28;20066;-81
2023/03/06 07:40:23;;;;;;;51.72;27.02;;;;;;;2.60;100.00;99913.47;5004381;28;20564;-79
2023/03/06 07:42:53;;;;;;;55.58;29.90;;;;;;;2.56;100.00;99914.66;4995936;28;20131;-81
2023/03/06 07:45:20;;;;;;;52.55;28.48;;;;;;;2.62;100.00;99922.75;4997591;28;20054;-81
2023/03/06 07:47:49;;;;;;;53.28;28.42;;;;;;;2.65;100.00;99926.84;5000057;28;20050;-81
2023/03/06 07:50:17;;;;;;;73.80;30.95;;;;;;;2.63;100.00;99902.91;4995232;28;20058;-78
2023/03/06 07:52:44;;;;;;;53.28;27.65;;;;;;;2.77;100.00;99920.72;5005149;28;20056;-81
2023/03/06 07:55:11;;;;;;;52.40;28.55;;;;;;;2.55;100.00;99903.50;4996702;28;20039;-81
2023/03/06 07:57:38;;;;;;;52.75;29.33;;;;;;;2.64;100.00;99927.78;5004065;28;20042;-80
2023/03/06 08:00:08;;;;;;;52.65;29.70;;;;;;;2.69;100.00;99923.09;4997098;28;20051;-81
2023/03/06 08:02:35;;;;;;;58.15;29.48;;;;;;;2.72;100.00;99927.19;5000240;28;20199;-80
2023/03/06 08:05:02;;;;;;;56.22;28.90;;;;;;;2.75;100.00;99925.19;4995985;28;20051;-79
2023/03/06 08:07:30;;;;;;;56.17;29.73;;;;;;;2.69;100.00;99923.09;5000660;28;20047;-79
2023/03/06 08:09:57;;;;;;;58.80;30.17;;;;;;;2.70;100.00;99924.72;5001985;28;20097;-79
2023/03/06 08:12:24;;;;;;;65.25;30.60;;;;;;;2.73;100.00;99924.47;4999538;28;20073;-79
2023/03/06 08:14:51;;;;;;;53.85;29.90;;;;;;;2.81;100.00;99932.44;4999785;28;20050;-78
2023/03/06 08:17:18;;;;;;;55.53;28.60;;;;;;;2.80;100.00;99933.38;5000153;28;20065;-78
2023/03/06 08:19:44;;;;;;;52.40;28.73;;;;;;;2.88;100.00;99928.38;4998745;28;20098;-79
2023/03/06 08:22:12;;;;;;;56.67;30.67;;;;;;;2.90;100.00;99934.25;5002321;28;20452;-79
2023/03/06 08:24:41;;;;;;;60.40;31.38;;;;;;;3.05;100.00;99928.78;4997835;28;20046;-81
2023/03/06 08:27:08;;;;;;;54.25;29.23;;;;;;;2.99;100.00;99918.00;4993782;28;20078;-80
2023/03/06 08:29:37;;;;;;;54.53;28.35;;;;;;;3.04;100.00;99917.63;4998671;28;20046;-81
2023/03/06 08:32:05;;;;;;;52.65;28.25;;;;;;;3.09;100.00;99912.91;4996409;28;20054;-79
2023/03/06 08:34:31;;;;;;;59.90;29.80;;;;;;;3.23;100.00;99919.53;4998988;28;20077;-81
2023/03/06 08:36:58;;;;;;;53.60;28.75;;;;;;;3.14;100.00;99912.53;5003447;28;20601;-81
2023/03/06 08:39:25;;;;;;;53.70;28.38;;;;;;;3.11;100.00;99917.97;4994518;28;20046;-78
2023/03/06 08:41:53;;;;;;;50.28;27.38;;;;;;;3.06;100.00;99910.56;4996215;28;20073;-80
2023/03/06 08:44:19;;;;;;;51.55;27.58;;;;;;;3.09;100.00;99923.25;4992408;28;20090;-80
2023/03/06 08:46:46;;;;;;;51.35;26.98;;;;;;;3.18;100.00;99924.28;4998703;28;20085;-80
2023/03/06 08:49:13;;;;;;;52.75;26.80;;;;;;;3.14;100.00;99917.72;4990536;28;20082;-79
2023/03/06 08:51:41;;;;;;;51.33;27.23;;;;;;;3.35;100.00;99921.09;4995496;28;20081;-79
2023/03/06 08:54:10;;;;;;;51.58;28.05;;;;;;;3.26;99.75;99916.72;4993437;28;20086;-80
2023/03/06 08:56:37;;;;;;;49.20;27.65;;;;;;;3.30;100.00;99918.09;4997369;28;20119;-80
2023/03/06 08:59:08;;;;;;;51.30;28.33;;;;;;;3.47;99.27;99911.50;4992980;28;20074;-79
2023/03/06 09:01:37;;;;;;;49.65;26.35;;;;;;;3.64;98.90;99922.09;4992469;28;20050;-78
2023/03/06 09:04:06;;;;;;;46.22;25.98;;;;;;;3.66;98.44;99917.59;4993197;28;20153;-78
2023/03/06 09:06:35;;;;;;;47.03;26.45;;;;;;;3.83;97.98;99921.34;4993581;28;20050;-80
2023/03/06 09:09:03;;;;;;;45.75;25.33;;;;;;;3.90;97.71;99912.09;4993128;28;20066;-82
2023/03/06 09:11:33;;;;;;;48.38;26.95;;;;;;;3.86;97.45;99922.84;4996933;28;20050;-81
2023/03/06 09:14:00;;;;;;;49.67;26.02;;;;;;;4.13;96.16;99915.31;4994949;28;20061;-82
2023/03/06 09:16:29;;;;;;;43.17;24.17;;;;;;;4.14;96.12;99914.38;4989076;28;20058;-80
2023/03/06 09:18:56;;;;;;;42.58;25.27;;;;;;;4.55;94.95;99917.72;4998658;28;20065;-82
2023/03/06 09:21:25;;;;;;;48.63;26.27;;;;;;;4.66;94.70;99920.19;4991184;28;20057;-82
2023/03/06 09:23:52;;;;;;;40.00;24.83;;;;;;;4.86;93.93;99924.41;4997572;28;20129;-79
2023/03/06 09:26:19;;;;;;;43.30;25.95;;;;;;;4.78;93.45;99926.84;4991392;28;20086;-78
2023/03/06 09:28:46;;;;;;;44.10;25.88;;;;;;;4.60;92.03;99911.16;4994642;28;20077;-80
2023/03/06 09:31:15;;;;;;;46.42;25.67;;;;;;;4.20;92.24;99913.03;4989883;28;20070;-79
2023/03/06 09:33:44;;;;;;;40.22;24.00;;;;;;;3.75;92.87;99917.78;4989563;28;20130;-79
2023/03/06 09:36:15;;;;;;;45.28;26.05;;;;;;;3.62;93.61;99908.47;4990630;28;20070;-80
2023/03/06 09:38:42;;;;;;;42.50;24.85;;;;;;;3.72;94.11;99920.63;4989853;28;20106;-79
2023/03/06 09:41:26;;;;;;;42.15;24.42;;;;;;;3.56;94.02;99918.50;4988988;28;20054;-79
2023/03/06 09:43:56;;;;;;;46.47;24.85;;;;;;;3.56;93.98;99908.97;4989262;28;20068;-80
2023/03/06 09:46:29;;;;;;;41.00;24.55;;;;;;;3.69;94.09;99910.53;4992100;28;20424;-80
2023/03/06 09:49:14;;;;;;;45.45;25.90;;;;;;;3.80;94.81;99920.78;4991802;28;20066;-79
2023/03/06 09:51:51;;;;;;;44.65;25.42;;;;;;;3.94;94.31;99910.88;4994185;28;20050;-81
2023/03/06 09:54:24;;;;;;;43.13;23.80;;;;;;;4.12;94.21;99918.84;4989822;28;20050;-81
2023/03/06 09:56:51;;;;;;;41.03;23.58;;;;;;;4.18;93.57;99912.34;4996157;28;20061;-78
2023/03/06 09:59:21;;;;;;;46.00;24.60;;;;;;;4.25;93.40;99908.28;4995347;28;20120;-82
2023/03/06 10:01:58;;;;;;;42.00;23.38;;;;;;;4.31;92.39;99913.72;4998366;28;20078;-80
2023/03/06 10:04:34;;;;;;;39.22;23.17;;;;;;;4.45;91.64;99898.75;4993905;28;20568;-82
2023/03/06 10:07:07;;;;;;;43.75;23.77;;;;;;;4.41;92.08;99899.97;4995259;28;20058;-81
2023/03/06 10:09:42;;;;;;;41.28;24.10;;;;;;;4.38;92.01;99910.59;4997174;28;20081;-81
2023/03/06 10:12:20;;;;;;;45.65;24.48;;;;;;;4.49;91.58;99902.69;4995997;28;20055;-80
2023/03/06 10:14:59;;;;;;;41.50;23.48;;;;;;;4.49;91.37;99897.53;4996200;28;20058;-80
2023/03/06 10:17:31;;;;;;;37.67;22.52;;;;;;;4.60;91.23;99907.75;4992062;28;20153;-82
2023/03/06 10:19:59;;;;;;;41.25;21.60;;;;;;;4.59;90.49;99903.53;4997123;28;20046;-81
2023/03/06 10:22:31;;;;;;;35.63;20.67;;;;;;;4.50;90.32;99896.56;4982543;28;20070;-79
2023/03/06 10:25:11;;;;;;;35.63;20.73;;;;;;;4.24;90.39;99910.03;4992061;28;20050;-80
2023/03/06 10:27:46;;;;;;;36.58;20.80;;;;;;;4.22;90.59;99908.53;4997839;28;20088;-77
2023/03/06 10:30:25;;;;;;;34.58;20.40;;;;;;;4.14;91.18;99904.00;4988270;28;20493;-77
2023/03/06 10:32:57;;;;;;;30.70;19.15;;;;;;;4.04;91.03;99905.75;4981932;28;20109;-78
2023/03/06 10:35:28;;;;;;;35.15;20.40;;;;;;;4.10;91.58;99909.59;4992615;28;20050;-78
2023/03/06 10:38:02;;;;;;;37.38;20.67;;;;;;;3.90;90.83;99900.94;4987801;28;20137;-78
2023/03/06 10:40:40;;;;;;;38.65;22.45;;;;;;;3.99;91.43;99910.50;4993363;28;20521;-78
2023/03/06 10:43:11;;;;;;;37.67;21.67;;;;;;;3.86;91.64;99907.31;4991377;28;20077;-79
2023/03/06 10:45:47;;;;;;;36.05;21.73;;;;;;;3.90;92.38;99917.28;4999024;28;20068;-80
2023/03/06 10:48:19;;;;;;;38.13;23.33;;;;;;;4.03;93.19;99911.06;4999507;28;20101;-80
2023/03/06 10:50:47;;;;;;;38.85;23.70;;;;;;;4.08;93.83;99903.72;5002553;28;20118;-81
2023/03/06 10:53:22;;;;;;;36.92;22.65;;;;;;;4.12;93.77;99905.91;5005010;28;20057;-80
2023/03/06 10:55:55;;;;;;;38.20;23.45;;;;;;;4.11;93.52;99908.63;5006319;28;20058;-82
2023/03/06 10:58:23;;;;;;;;;;;;;;;4.06;94.06;99910.78;4987875;28;20050;-79
2023/03/06 11:01:01;;;;;;;38.33;23.10;;;;;;;4.08;94.28;99911.47;5000041;28;19922;-80
2023/03/06 11:03:28;;;;;;;37.28;22.02;;;;;;;4.02;94.15;99910.25;4985636;28;20073;-83
2023/03/06 11:06:02;;;;;;;37.17;21.50;;;;;;;3.94;93.90;99908.31;4984807;28;20082;-78
2023/03/06 11:08:30;;;;;;;37.10;21.30;;;;;;;4.06;93.88;99921.97;4995467;28;20058;-78
2023/03/06 11:11:00;;;;;;;41.58;23.58;;;;;;;4.05;94.69;99912.56;4993209;28;20081;-77
2023/03/06 11:13:32;;;;;;;32.78;19.23;;;;;;;4.01;94.10;99918.94;4992380;28;20106;-77
2023/03/06 11:16:05;;;;;;;32.35;18.50;;;;;;;4.08;93.89;99914.91;4993094;28;20133;-77
2023/03/06 11:18:38;;;;;;;31.92;18.15;;;;;;;4.15;93.86;99920.38;4990800;28;20082;-80
2023/03/06 11:21:25;;;;;;;34.72;20.30;;;;;;;4.12;93.10;99916.28;4992766;28;20047;-77
2023/03/06 11:23:54;;;;;;;39.35;22.25;;;;;;;4.04;93.61;99910.94;4993105;28;20110;-78
2023/03/06 11:26:31;;;;;;;38.53;20.85;;;;;;;4.08;94.22;99908.91;4992481;28;20100;-77
2023/03/06 11:29:12;;;;;;;35.28;21.15;;;;;;;4.01;94.17;99908.59;4985895;28;20086;-78
2023/03/06 11:31:52;;;;;;;33.53;20.17;;;;;;;3.97;94.25;99915.81;4980354;28;20158;-81